CheckWX is a tool to help pilots better visualize weather data.  It is not intended as a substitute for an official pre-flight weather briefing.

12:20:51 UTC

KOLU METAR
Columbus Municipal Airport
Columbus, Nebraska, USA
Current

25 mins ago

KOLU 181156Z AUTO 32011KT 10SM CLR M14/M16 A3037 RMK AO2 SLP314 60000 T11391156 11106 21139 53019 FZRANO
Observed
Feb-18 @ 11:56 UTC
Wind
  • 320° at 11 KTS
Visibility
10 SM
Flight Rules
VFR
Cloud Levels
  • Clear skies
Temperature
-14°C / 7°F
Dewpoint
-16°C / 3°F
Humidity
85%
Altimeter
30.37" Hg
Pressure
1031.4 hPa
Previous

1 hour ago

KOLU 181056Z AUTO 33012KT 10SM CLR M13/M15 A3033 RMK AO2 SLP300 T11331150 FZRANO
Observed
Feb-18 @ 10:56 UTC
Wind
  • 330° at 12 KTS
Visibility
10 SM
Flight Rules
VFR
Cloud Levels
  • Clear skies
Temperature
-13°C / 9°F
Dewpoint
-15°C / 5°F
Humidity
85%
Altimeter
30.33" Hg
Pressure
1030 hPa
Previous

2 hours ago

KOLU 180956Z AUTO 32010KT 10SM CLR M12/M14 A3032 RMK AO2 SLP296 T11221144 FZRANO
Observed
Feb-18 @ 09:56 UTC
Wind
  • 320° at 10 KTS
Visibility
10 SM
Flight Rules
VFR
Cloud Levels
  • Clear skies
Temperature
-12°C / 10°F
Dewpoint
-14°C / 7°F
Humidity
85%
Altimeter
30.32" Hg
Pressure
1029.6 hPa